sensor_id;sensor_type;location;lat;lon;timestamp;pressure;altitude;pressure_sealevel;temperature;humidity
18985;BME280;9626;52.552;13.436;2023-03-25T00:02:14;99702.97;;;8.86;100.00
18985;BME280;9626;52.552;13.436;2023-03-25T00:04:41;99708.50;;;8.77;100.00
18985;BME280;9626;52.552;13.436;2023-03-25T00:07:07;99699.75;;;8.75;100.00
18985;BME280;9626;52.552;13.436;2023-03-25T00:09:33;99702.53;;;8.70;100.00
18985;BME280;9626;52.552;13.436;2023-03-25T00:11:59;99693.75;;;8.68;100.00
18985;BME280;9626;52.552;13.436;2023-03-25T00:14:25;99696.59;;;8.62;100.00
18985;BME280;9626;52.552;13.436;2023-03-25T00:16:51;99713.22;;;8.64;100.00
18985;BME280;9626;52.552;13.436;2023-03-25T00:19:18;99701.03;;;8.60;100.00
18985;BME280;9626;52.552;13.436;2023-03-25T00:21:47;99697.50;;;8.61;100.00
18985;BME280;9626;52.552;13.436;2023-03-25T00:24:16;99687.94;;;8.57;100.00
18985;BME280;9626;52.552;13.436;2023-03-25T00:26:46;99692.47;;;8.52;100.00
18985;BME280;9626;52.552;13.436;2023-03-25T00:29:14;99690.81;;;8.48;100.00
18985;BME280;9626;52.552;13.436;2023-03-25T00:31:41;99687.38;;;8.45;100.00
18985;BME280;9626;52.552;13.436;2023-03-25T00:34:08;99684.72;;;8.45;100.00
18985;BME280;9626;52.552;13.436;2023-03-25T00:36:34;99686.38;;;8.50;100.00
18985;BME280;9626;52.552;13.436;2023-03-25T00:39:04;99697.00;;;8.46;100.00
18985;BME280;9626;52.552;13.436;2023-03-25T00:41:30;99693.44;;;8.48;100.00
18985;BME280;9626;52.552;13.436;2023-03-25T00:43:58;99690.00;;;8.45;100.00
18985;BME280;9626;52.552;13.436;2023-03-25T00:46:27;99698.81;;;8.43;100.00
18985;BME280;9626;52.552;13.436;2023-03-25T00:48:54;99698.88;;;8.41;100.00
18985;BME280;9626;52.552;13.436;2023-03-25T00:51:21;99695.41;;;8.39;100.00
18985;BME280;9626;52.552;13.436;2023-03-25T00:53:52;99697.19;;;8.39;100.00
18985;BME280;9626;52.552;13.436;2023-03-25T00:56:20;99703.31;;;8.39;100.00
18985;BME280;9626;52.552;13.436;2023-03-25T00:58:46;99698.13;;;8.36;100.00
18985;BME280;9626;52.552;13.436;2023-03-25T01:01:15;99702.53;;;8.36;100.00
18985;BME280;9626;52.552;13.436;2023-03-25T01:03:42;99699.91;;;8.34;100.00
18985;BME280;9626;52.552;13.436;2023-03-25T01:06:10;99702.59;;;8.33;100.00
18985;BME280;9626;52.552;13.436;2023-03-25T01:08:38;99710.56;;;8.31;100.00
18985;BME280;9626;52.552;13.436;2023-03-25T01:11:04;99707.91;;;8.31;100.00
18985;BME280;9626;52.552;13.436;2023-03-25T01:13:32;99700.81;;;8.35;100.00
18985;BME280;9626;52.552;13.436;2023-03-25T01:15:58;99702.69;;;8.29;100.00
18985;BME280;9626;52.552;13.436;2023-03-25T01:18:24;99699.22;;;8.27;100.00
18985;BME280;9626;52.552;13.436;2023-03-25T01:20:50;99701.78;;;8.31;100.00
18985;BME280;9626;52.552;13.436;2023-03-25T01:23:16;99699.22;;;8.27;100.00
18985;BME280;9626;52.552;13.436;2023-03-25T01:25:42;99691.44;;;8.23;100.00
18985;BME280;9626;52.552;13.436;2023-03-25T01:28:08;99701.16;;;8.21;100.00
18985;BME280;9626;52.552;13.436;2023-03-25T01:30:34;99680.94;;;8.21;100.00
18985;BME280;9626;52.552;13.436;2023-03-25T01:33:00;99675.78;;;8.17;100.00
18985;BME280;9626;52.552;13.436;2023-03-25T01:35:26;99682.72;;;8.21;100.00
18985;BME280;9626;52.552;13.436;2023-03-25T01:37:52;99679.28;;;8.17;100.00
18985;BME280;9626;52.552;13.436;2023-03-25T01:40:21;99670.56;;;8.13;100.00
18985;BME280;9626;52.552;13.436;2023-03-25T01:42:48;99675.84;;;8.13;100.00
18985;BME280;9626;52.552;13.436;2023-03-25T01:47:57;99658.44;;;8.06;100.00
18985;BME280;9626;52.552;13.436;2023-03-25T01:50:27;99661.84;;;8.11;100.00
18985;BME280;9626;52.552;13.436;2023-03-25T01:52:55;99652.28;;;8.07;100.00
18985;BME280;9626;52.552;13.436;2023-03-25T01:55:22;99663.69;;;8.08;100.00
18985;BME280;9626;52.552;13.436;2023-03-25T01:57:50;99660.00;;;8.13;100.00
18985;BME280;9626;52.552;13.436;2023-03-25T02:00:19;99653.00;;;8.12;100.00
18985;BME280;9626;52.552;13.436;2023-03-25T02:02:46;99661.81;;;8.13;100.00
18985;BME280;9626;52.552;13.436;2023-03-25T02:05:20;99661.84;;;8.11;100.00
18985;BME280;9626;52.552;13.436;2023-03-25T02:07:50;99657.50;;;8.09;100.00
18985;BME280;9626;52.552;13.436;2023-03-25T02:10:18;99656.63;;;8.08;100.00
18985;BME280;9626;52.552;13.436;2023-03-25T02:12:44;99658.38;;;8.09;100.00
18985;BME280;9626;52.552;13.436;2023-03-25T02:15:16;99654.75;;;8.13;100.00
18985;BME280;9626;52.552;13.436;2023-03-25T02:18:02;99639.75;;;8.16;100.00
18985;BME280;9626;52.552;13.436;2023-03-25T02:21:04;99642.41;;;8.16;100.00
18985;BME280;9626;52.552;13.436;2023-03-25T02:40:04;99624.88;;;8.13;100.00
18985;BME280;9626;52.552;13.436;2023-03-25T02:45:29;99605.53;;;8.12;100.00
18985;BME280;9626;52.552;13.436;2023-03-25T02:48:01;99612.69;;;8.09;100.00
18985;BME280;9626;52.552;13.436;2023-03-25T02:50:33;99600.34;;;8.09;100.00
18985;BME280;9626;52.552;13.436;2023-03-25T02:53:04;99600.34;;;8.09;100.00
18985;BME280;9626;52.552;13.436;2023-03-25T02:55:33;99599.56;;;8.07;100.00
18985;BME280;9626;52.552;13.436;2023-03-25T02:58:03;99595.13;;;8.08;100.00
18985;BME280;9626;52.552;13.436;2023-03-25T03:00:32;99593.44;;;8.05;100.00
18985;BME280;9626;52.552;13.436;2023-03-25T03:03:06;99599.47;;;8.10;100.00
18985;BME280;9626;52.552;13.436;2023-03-25T03:05:35;99596.72;;;8.13;100.00
18985;BME280;9626;52.552;13.436;2023-03-25T03:11:06;99591.41;;;8.17;100.00
18985;BME280;9626;52.552;13.436;2023-03-25T03:24:31;99591.06;;;8.27;100.00
18985;BME280;9626;52.552;13.436;2023-03-25T03:27:17;99605.28;;;8.22;100.00
18985;BME280;9626;52.552;13.436;2023-03-25T03:30:03;99617.81;;;8.13;100.00
18985;BME280;9626;52.552;13.436;2023-03-25T03:32:41;99618.34;;;7.95;100.00
18985;BME280;9626;52.552;13.436;2023-03-25T03:35:19;99622.09;;;7.85;100.00
18985;BME280;9626;52.552;13.436;2023-03-25T03:37:51;99621.28;;;7.81;100.00
18985;BME280;9626;52.552;13.436;2023-03-25T03:40:19;99613.59;;;7.73;100.00
18985;BME280;9626;52.552;13.436;2023-03-25T03:43:00;99626.03;;;7.68;100.00
18985;BME280;9626;52.552;13.436;2023-03-25T03:45:33;99613.91;;;7.61;100.00
18985;BME280;9626;52.552;13.436;2023-03-25T03:48:05;99626.97;;;7.66;100.00
18985;BME280;9626;52.552;13.436;2023-03-25T03:50:42;99636.66;;;7.65;100.00
18985;BME280;9626;52.552;13.436;2023-03-25T03:53:19;99629.75;;;7.58;100.00
18985;BME280;9626;52.552;13.436;2023-03-25T03:55:56;99634.34;;;7.51;100.00
18985;BME280;9626;52.552;13.436;2023-03-25T03:58:39;99630.94;;;7.46;100.00
18985;BME280;9626;52.552;13.436;2023-03-25T04:01:19;99626.75;;;7.37;100.00
18985;BME280;9626;52.552;13.436;2023-03-25T04:03:58;99632.16;;;7.31;100.00
18985;BME280;9626;52.552;13.436;2023-03-25T04:11:47;99628.56;;;7.35;100.00
18985;BME280;9626;52.552;13.436;2023-03-25T04:14:15;99622.44;;;7.33;100.00
18985;BME280;9626;52.552;13.436;2023-03-25T04:16:41;99617.19;;;7.33;100.00
18985;BME280;9626;52.552;13.436;2023-03-25T04:19:10;99629.38;;;7.37;100.00
18985;BME280;9626;52.552;13.436;2023-03-25T04:21:43;99629.47;;;7.34;100.00
18985;BME280;9626;52.552;13.436;2023-03-25T04:24:10;99629.31;;;7.40;100.00
18985;BME280;9626;52.552;13.436;2023-03-25T04:26:36;99633.63;;;7.43;100.00
18985;BME280;9626;52.552;13.436;2023-03-25T04:29:03;99638.88;;;7.44;100.00
18985;BME280;9626;52.552;13.436;2023-03-25T04:31:30;99634.41;;;7.48;100.00
18985;BME280;9626;52.552;13.436;2023-03-25T04:33:57;99635.19;;;7.52;100.00
18985;BME280;9626;52.552;13.436;2023-03-25T04:36:26;99629.03;;;7.53;100.00
18985;BME280;9626;52.552;13.436;2023-03-25T04:38:58;99623.56;;;7.60;100.00
18985;BME280;9626;52.552;13.436;2023-03-25T04:41:24;99626.25;;;7.59;100.00
18985;BME280;9626;52.552;13.436;2023-03-25T04:43:50;99625.31;;;7.61;100.00
18985;BME280;9626;52.552;13.436;2023-03-25T04:46:17;99626.16;;;7.62;100.00
18985;BME280;9626;52.552;13.436;2023-03-25T04:48:43;99619.09;;;7.64;100.00
18985;BME280;9626;52.552;13.436;2023-03-25T04:51:12;99633.03;;;7.69;100.00
18985;BME280;9626;52.552;13.436;2023-03-25T04:53:39;99615.34;;;7.74;100.00
18985;BME280;9626;52.552;13.436;2023-03-25T04:56:06;99611.78;;;7.75;100.00
18985;BME280;9626;52.552;13.436;2023-03-25T04:58:38;99608.41;;;7.70;100.00
18985;BME280;9626;52.552;13.436;2023-03-25T05:01:05;99613.66;;;7.72;100.00
18985;BME280;9626;52.552;13.436;2023-03-25T05:03:36;99610.84;;;7.78;100.00
18985;BME280;9626;52.552;13.436;2023-03-25T05:06:05;99608.34;;;7.73;100.00
18985;BME280;9626;52.552;13.436;2023-03-25T05:08:32;99619.72;;;7.74;100.00
18985;BME280;9626;52.552;13.436;2023-03-25T05:10:58;99605.75;;;7.72;100.00
18985;BME280;9626;52.552;13.436;2023-03-25T05:13:24;99601.28;;;7.74;100.00
18985;BME280;9626;52.552;13.436;2023-03-25T05:15:50;99608.41;;;7.70;100.00
18985;BME280;9626;52.552;13.436;2023-03-25T05:18:16;99612.69;;;7.74;100.00
18985;BME280;9626;52.552;13.436;2023-03-25T05:20:44;99604.81;;;7.74;100.00
18985;BME280;9626;52.552;13.436;2023-03-25T05:23:12;99601.28;;;7.74;100.00
18985;BME280;9626;52.552;13.436;2023-03-25T05:25:41;99607.44;;;7.74;100.00
18985;BME280;9626;52.552;13.436;2023-03-25T05:28:08;99610.13;;;7.71;100.00
18985;BME280;9626;52.552;13.436;2023-03-25T05:30:43;99599.53;;;7.74;100.00
18985;BME280;9626;52.552;13.436;2023-03-25T05:33:15;99598.66;;;7.74;100.00
18985;BME280;9626;52.552;13.436;2023-03-25T05:35:41;99606.59;;;7.72;100.00
18985;BME280;9626;52.552;13.436;2023-03-25T05:38:08;99604.72;;;7.77;100.00
18985;BME280;9626;52.552;13.436;2023-03-25T05:40:37;99611.72;;;7.78;100.00
18985;BME280;9626;52.552;13.436;2023-03-25T05:43:03;99608.09;;;7.83;100.00
18985;BME280;9626;52.552;13.436;2023-03-25T05:45:32;99611.50;;;7.86;100.00
18985;BME280;9626;52.552;13.436;2023-03-25T05:48:01;99606.00;;;7.95;100.00
18985;BME280;9626;52.552;13.436;2023-03-25T05:50:28;99609.34;;;8.02;100.00
18985;BME280;9626;52.552;13.436;2023-03-25T05:52:54;99616.28;;;8.06;100.00
18985;BME280;9626;52.552;13.436;2023-03-25T05:55:21;99613.53;;;8.09;100.00
18985;BME280;9626;52.552;13.436;2023-03-25T05:57:48;99622.25;;;8.13;100.00
18985;BME280;9626;52.552;13.436;2023-03-25T06:00:15;99626.63;;;8.12;100.00
18985;BME280;9626;52.552;13.436;2023-03-25T06:02:44;99631.09;;;8.10;100.00
18985;BME280;9626;52.552;13.436;2023-03-25T06:05:11;99621.38;;;8.12;100.00
18985;BME280;9626;52.552;13.436;2023-03-25T06:07:40;99630.97;;;8.15;100.00
18985;BME280;9626;52.552;13.436;2023-03-25T06:10:10;99623.81;;;8.20;100.00
18985;BME280;9626;52.552;13.436;2023-03-25T06:12:38;99621.06;;;8.25;100.00
18985;BME280;9626;52.552;13.436;2023-03-25T06:15:06;99626.16;;;8.31;100.00
18985;BME280;9626;52.552;13.436;2023-03-25T06:17:32;99631.34;;;8.34;100.00
18985;BME280;9626;52.552;13.436;2023-03-25T06:19:59;99632.22;;;8.35;100.00
18985;BME280;9626;52.552;13.436;2023-03-25T06:22:26;99647.22;;;8.33;100.00
18985;BME280;9626;52.552;13.436;2023-03-25T06:24:52;99632.28;;;8.33;100.00
18985;BME280;9626;52.552;13.436;2023-03-25T06:27:18;99630.53;;;8.32;100.00
18985;BME280;9626;52.552;13.436;2023-03-25T06:29:45;99651.53;;;8.35;100.00
18985;BME280;9626;52.552;13.436;2023-03-25T06:32:13;99634.72;;;8.39;100.00
18985;BME280;9626;52.552;13.436;2023-03-25T06:34:39;99641.72;;;8.40;100.00
18985;BME280;9626;52.552;13.436;2023-03-25T06:37:08;99644.38;;;8.40;100.00
18985;BME280;9626;52.552;13.436;2023-03-25T06:39:36;99657.47;;;8.43;100.00
18985;BME280;9626;52.552;13.436;2023-03-25T06:42:04;99647.78;;;8.45;100.00
18985;BME280;9626;52.552;13.436;2023-03-25T06:44:30;99647.81;;;8.44;100.00
18985;BME280;9626;52.552;13.436;2023-03-25T06:46:56;99646.03;;;8.44;100.00
18985;BME280;9626;52.552;13.436;2023-03-25T06:49:22;99642.47;;;8.47;100.00
18985;BME280;9626;52.552;13.436;2023-03-25T06:51:48;99638.94;;;8.46;100.00
18985;BME280;9626;52.552;13.436;2023-03-25T06:54:15;99637.09;;;8.50;100.00
18985;BME280;9626;52.552;13.436;2023-03-25T06:56:41;99637.88;;;8.54;100.00
18985;BME280;9626;52.552;13.436;2023-03-25T06:59:07;99631.56;;;8.59;100.00
18985;BME280;9626;52.552;13.436;2023-03-25T07:01:33;99628.88;;;8.61;100.00
18985;BME280;9626;52.552;13.436;2023-03-25T07:03:59;99633.34;;;8.59;100.00
18985;BME280;9626;52.552;13.436;2023-03-25T07:06:25;99637.63;;;8.63;100.00
18985;BME280;9626;52.552;13.436;2023-03-25T07:08:51;99639.28;;;8.67;100.00
18985;BME280;9626;52.552;13.436;2023-03-25T07:11:24;99635.75;;;8.67;100.00
18985;BME280;9626;52.552;13.436;2023-03-25T07:13:50;99639.88;;;8.77;100.00
18985;BME280;9626;52.552;13.436;2023-03-25T07:16:19;99651.97;;;8.84;100.00
18985;BME280;9626;52.552;13.436;2023-03-25T07:18:46;99641.19;;;8.92;100.00
18985;BME280;9626;52.552;13.436;2023-03-25T07:21:12;99642.78;;;8.98;100.00
18985;BME280;9626;52.552;13.436;2023-03-25T07:23:39;99653.31;;;8.99;100.00
18985;BME280;9626;52.552;13.436;2023-03-25T07:26:10;99639.94;;;9.05;100.00
18985;BME280;9626;52.552;13.436;2023-03-25T07:28:38;99653.66;;;9.17;100.00
18985;BME280;9626;52.552;13.436;2023-03-25T07:31:12;99653.44;;;9.24;100.00
18985;BME280;9626;52.552;13.436;2023-03-25T07:33:38;99647.00;;;9.33;100.00
18985;BME280;9626;52.552;13.436;2023-03-25T07:36:06;99653.59;;;9.48;100.00
18985;BME280;9626;52.552;13.436;2023-03-25T07:38:33;99655.19;;;9.80;100.00
18985;BME280;9626;52.552;13.436;2023-03-25T07:41:04;99655.63;;;9.93;100.00
18985;BME280;9626;52.552;13.436;2023-03-25T07:43:30;99662.56;;;9.97;100.00
18985;BME280;9626;52.552;13.436;2023-03-25T07:45:58;99659.06;;;9.97;100.00
18985;BME280;9626;52.552;13.436;2023-03-25T07:48:24;99666.16;;;10.22;100.00
18985;BME280;9626;52.552;13.436;2023-03-25T07:50:51;99657.19;;;10.26;100.00
18985;BME280;9626;52.552;13.436;2023-03-25T07:53:17;99666.34;;;10.42;100.00
18985;BME280;9626;52.552;13.436;2023-03-25T07:55:44;99656.28;;;10.52;100.00
18985;BME280;9626;52.552;13.436;2023-03-25T07:58:16;99659.91;;;10.75;100.00
18985;BME280;9626;52.552;13.436;2023-03-25T08:00:43;99674.56;;;10.60;100.00
18985;BME280;9626;52.552;13.436;2023-03-25T08:03:11;99663.25;;;10.55;100.00
18985;BME280;9626;52.552;13.436;2023-03-25T08:05:45;99662.81;;;10.67;100.00
18985;BME280;9626;52.552;13.436;2023-03-25T08:08:12;99664.88;;;10.59;100.00
18985;BME280;9626;52.552;13.436;2023-03-25T08:10:41;99657.53;;;10.67;100.00
18985;BME280;9626;52.552;13.436;2023-03-25T08:13:08;99658.53;;;10.39;100.00
18985;BME280;9626;52.552;13.436;2023-03-25T08:15:35;99655.44;;;10.25;100.00
18985;BME280;9626;52.552;13.436;2023-03-25T08:18:01;99662.69;;;10.70;100.00
18985;BME280;9626;52.552;13.436;2023-03-25T08:20:29;99678.94;;;10.61;100.00
18985;BME280;9626;52.552;13.436;2023-03-25T08:22:55;99652.78;;;10.52;100.00
18985;BME280;9626;52.552;13.436;2023-03-25T08:25:23;99661.75;;;10.47;100.00
18985;BME280;9626;52.552;13.436;2023-03-25T08:27:50;99663.28;;;10.28;100.00
18985;BME280;9626;52.552;13.436;2023-03-25T08:30:16;99670.09;;;10.37;100.00
18985;BME280;9626;52.552;13.436;2023-03-25T08:32:42;99666.34;;;10.42;100.00
18985;BME280;9626;52.552;13.436;2023-03-25T08:35:11;99663.06;;;10.34;100.00
18985;BME280;9626;52.552;13.436;2023-03-25T08:37:37;99661.75;;;10.47;100.00
18985;BME280;9626;52.552;13.436;2023-03-25T08:40:05;99647.72;;;10.45;100.00
18985;BME280;9626;52.552;13.436;2023-03-25T08:42:35;99656.22;;;10.55;100.00
18985;BME280;9626;52.552;13.436;2023-03-25T08:45:03;99652.03;;;10.73;100.00
18985;BME280;9626;52.552;13.436;2023-03-25T08:47:29;99657.59;;;10.89;100.00
18985;BME280;9626;52.552;13.436;2023-03-25T08:49:56;99656.41;;;10.98;100.00
18985;BME280;9626;52.552;13.436;2023-03-25T08:52:22;99654.84;;;11.38;100.00
18985;BME280;9626;52.552;13.436;2023-03-25T08:54:49;99647.97;;;11.10;99.38
18985;BME280;9626;52.552;13.436;2023-03-25T08:57:15;99655.06;;;11.10;98.80
18985;BME280;9626;52.552;13.436;2023-03-25T08:59:41;99649.25;;;11.00;99.56
18985;BME280;9626;52.552;13.436;2023-03-25T09:02:10;99661.13;;;10.90;98.09
18985;BME280;9626;52.552;13.436;2023-03-25T09:04:36;99649.53;;;10.69;96.90
18985;BME280;9626;52.552;13.436;2023-03-25T09:07:05;99632.16;;;10.61;97.58
18985;BME280;9626;52.552;13.436;2023-03-25T09:09:38;99648.09;;;10.60;99.64
18985;BME280;9626;52.552;13.436;2023-03-25T09:12:06;99643.13;;;10.74;98.30
18985;BME280;9626;52.552;13.436;2023-03-25T09:14:32;99652.25;;;11.14;95.85
18985;BME280;9626;52.552;13.436;2023-03-25T09:16:58;99645.09;;;12.05;86.73
18985;BME280;9626;52.552;13.436;2023-03-25T09:19:24;99644.88;;;12.72;80.01
18985;BME280;9626;52.552;13.436;2023-03-25T09:21:53;99651.59;;;12.18;80.92
18985;BME280;9626;52.552;13.436;2023-03-25T09:24:19;99651.38;;;11.80;82.76
18985;BME280;9626;52.552;13.436;2023-03-25T09:26:47;99664.91;;;11.06;88.19
18985;BME280;9626;52.552;13.436;2023-03-25T09:29:13;99645.50;;;10.82;93.99
18985;BME280;9626;52.552;13.436;2023-03-25T09:31:39;99656.16;;;10.80;94.18
18985;BME280;9626;52.552;13.436;2023-03-25T09:34:05;99654.19;;;10.37;99.77
18985;BME280;9626;52.552;13.436;2023-03-25T09:36:33;99660.34;;;10.37;100.00
18985;BME280;9626;52.552;13.436;2023-03-25T09:38:59;99673.28;;;9.93;100.00
18985;BME280;9626;52.552;13.436;2023-03-25T09:44:27;99671.88;;;9.26;100.00
18985;BME280;9626;52.552;13.436;2023-03-25T09:46:56;99666.28;;;9.35;100.00
18985;BME280;9626;52.552;13.436;2023-03-25T09:49:31;99658.63;;;9.56;100.00
18985;BME280;9626;52.552;13.436;2023-03-25T09:52:02;99664.88;;;9.80;100.00
18985;BME280;9626;52.552;13.436;2023-03-25T09:54:31;99669.22;;;10.36;100.00
18985;BME280;9626;52.552;13.436;2023-03-25T09:57:03;99664.78;;;11.09;100.00
18985;BME280;9626;52.552;13.436;2023-03-25T09:59:39;99662.31;;;11.28;98.80
18985;BME280;9626;52.552;13.436;2023-03-25T10:10:47;99660.59;;;11.04;93.89
18985;BME280;9626;52.552;13.436;2023-03-25T10:13:30;99686.38;;;10.98;90.67
18985;BME280;9626;52.552;13.436;2023-03-25T10:21:43;99647.25;;;10.83;91.94
18985;BME280;9626;52.552;13.436;2023-03-25T10:32:52;99659.69;;;12.96;68.46
18985;BME280;9626;52.552;13.436;2023-03-25T10:35:38;99648.00;;;13.39;64.19
18985;BME280;9626;52.552;13.436;2023-03-25T10:38:22;99657.94;;;13.16;65.31
18985;BME280;9626;52.552;13.436;2023-03-25T10:41:21;99645.50;;;12.37;73.07
18985;BME280;9626;52.552;13.436;2023-03-25T10:43:49;99643.13;;;12.71;68.90
18985;BME280;9626;52.552;13.436;2023-03-25T10:46:37;99643.53;;;12.42;70.51
18985;BME280;9626;52.552;13.436;2023-03-25T10:49:20;99651.97;;;12.31;68.63
18985;BME280;9626;52.552;13.436;2023-03-25T10:51:50;99634.31;;;12.10;71.34
18985;BME280;9626;52.552;13.436;2023-03-25T10:54:20;99646.47;;;13.71;62.33
18985;BME280;9626;52.552;13.436;2023-03-25T10:56:51;99631.13;;;13.21;64.22
18985;BME280;9626;52.552;13.436;2023-03-25T11:02:17;99634.91;;;12.77;64.02
18985;BME280;9626;52.552;13.436;2023-03-25T11:04:45;99635.75;;;12.38;67.14
18985;BME280;9626;52.552;13.436;2023-03-25T11:07:19;99642.81;;;12.78;64.27
18985;BME280;9626;52.552;13.436;2023-03-25T11:09:45;99648.09;;;12.39;68.52
18985;BME280;9626;52.552;13.436;2023-03-25T11:12:17;99628.94;;;13.67;63.40
18985;BME280;9626;52.552;13.436;2023-03-25T11:14:54;99632.47;;;12.51;67.54
18985;BME280;9626;52.552;13.436;2023-03-25T11:17:22;99626.28;;;12.11;71.11
18985;BME280;9626;52.552;13.436;2023-03-25T11:19:55;99627.72;;;12.39;71.13
18985;BME280;9626;52.552;13.436;2023-03-25T11:22:30;99636.34;;;12.44;70.41
18985;BME280;9626;52.552;13.436;2023-03-25T11:27:55;99610.34;;;12.11;68.04
18985;BME280;9626;52.552;13.436;2023-03-25T11:30:24;99613.66;;;11.96;71.36
18985;BME280;9626;52.552;13.436;2023-03-25T11:33:04;99623.75;;;11.86;72.32
18985;BME280;9626;52.552;13.436;2023-03-25T11:35:37;99653.22;;;11.58;75.06
18985;BME280;9626;52.552;13.436;2023-03-25T11:38:15;99654.03;;;10.41;96.79
18985;BME280;9626;52.552;13.436;2023-03-25T11:40:54;99654.38;;;10.05;100.00
18985;BME280;9626;52.552;13.436;2023-03-25T11:43:23;99637.75;;;10.27;100.00
18985;BME280;9626;52.552;13.436;2023-03-25T11:45:50;99630.22;;;10.41;100.00
18985;BME280;9626;52.552;13.436;2023-03-25T11:48:20;99632.19;;;10.36;100.00
18985;BME280;9626;52.552;13.436;2023-03-25T11:50:58;99626.28;;;10.01;100.00
18985;BME280;9626;52.552;13.436;2023-03-25T11:53:27;99625.28;;;10.05;100.00
18985;BME280;9626;52.552;13.436;2023-03-25T11:56:15;99621.19;;;9.95;100.00
18985;BME280;9626;52.552;13.436;2023-03-25T11:58:42;99613.78;;;10.06;100.00
18985;BME280;9626;52.552;13.436;2023-03-25T12:01:21;99612.13;;;10.54;100.00
18985;BME280;9626;52.552;13.436;2023-03-25T12:03:48;99611.00;;;10.36;100.00
18985;BME280;9626;52.552;13.436;2023-03-25T12:06:18;99598.13;;;10.51;100.00
18985;BME280;9626;52.552;13.436;2023-03-25T12:08:52;99596.66;;;11.13;100.00
18985;BME280;9626;52.552;13.436;2023-03-25T12:11:30;99593.47;;;11.71;100.00
18985;BME280;9626;52.552;13.436;2023-03-25T12:21:50;99581.44;;;11.83;83.95
18985;BME280;9626;52.552;13.436;2023-03-25T12:32:41;99572.63;;;11.62;74.19
18985;BME280;9626;52.552;13.436;2023-03-25T12:38:28;99576.25;;;12.02;72.32
18985;BME280;9626;52.552;13.436;2023-03-25T12:41:14;99558.50;;;12.04;70.87
18985;BME280;9626;52.552;13.436;2023-03-25T12:52:27;99570.69;;;12.08;71.01
18985;BME280;9626;52.552;13.436;2023-03-25T13:00:31;99559.38;;;13.01;61.53
18985;BME280;9626;52.552;13.436;2023-03-25T13:03:12;99558.34;;;12.47;64.81
18985;BME280;9626;52.552;13.436;2023-03-25T13:08:46;99552.13;;;11.65;72.49
18985;BME280;9626;52.552;13.436;2023-03-25T13:11:17;99551.34;;;11.63;74.36
18985;BME280;9626;52.552;13.436;2023-03-25T13:13:48;99563.06;;;11.58;75.13
18985;BME280;9626;52.552;13.436;2023-03-25T13:16:22;99565.81;;;11.55;77.63
18985;BME280;9626;52.552;13.436;2023-03-25T13:19:16;99569.84;;;11.21;85.01
18985;BME280;9626;52.552;13.436;2023-03-25T13:21:44;99610.00;;;10.39;100.00
18985;BME280;9626;52.552;13.436;2023-03-25T13:24:28;99608.47;;;8.98;100.00
18985;BME280;9626;52.552;13.436;2023-03-25T13:26:58;99583.09;;;8.31;100.00
18985;BME280;9626;52.552;13.436;2023-03-25T13:31:54;99571.28;;;8.45;100.00
18985;BME280;9626;52.552;13.436;2023-03-25T13:37:10;99581.97;;;8.39;100.00
18985;BME280;9626;52.552;13.436;2023-03-25T13:39:49;99595.03;;;8.44;100.00
18985;BME280;9626;52.552;13.436;2023-03-25T13:42:26;99599.06;;;8.59;100.00
18985;BME280;9626;52.552;13.436;2023-03-25T13:45:01;99596.69;;;8.79;100.00
18985;BME280;9626;52.552;13.436;2023-03-25T13:47:36;99581.28;;;8.64;100.00
18985;BME280;9626;52.552;13.436;2023-03-25T13:50:07;99588.66;;;8.53;100.00
18985;BME280;9626;52.552;13.436;2023-03-25T13:52:43;99593.94;;;8.53;100.00
18985;BME280;9626;52.552;13.436;2023-03-25T13:55:23;99590.94;;;8.65;100.00
18985;BME280;9626;52.552;13.436;2023-03-25T14:03:26;99572.53;;;9.22;100.00
18985;BME280;9626;52.552;13.436;2023-03-25T14:11:50;99560.38;;;9.70;100.00
18985;BME280;9626;52.552;13.436;2023-03-25T14:14:22;99567.91;;;9.55;100.00
18985;BME280;9626;52.552;13.436;2023-03-25T14:16:52;99568.84;;;9.53;100.00
18985;BME280;9626;52.552;13.436;2023-03-25T14:19:25;99572.72;;;9.69;100.00
18985;BME280;9626;52.552;13.436;2023-03-25T14:21:52;99573.59;;;9.70;100.00
18985;BME280;9626;52.552;13.436;2023-03-25T14:24:27;99578.22;;;9.63;100.00
18985;BME280;9626;52.552;13.436;2023-03-25T14:27:00;99574.81;;;9.86;100.00
18985;BME280;9626;52.552;13.436;2023-03-25T14:29:33;99586.25;;;10.37;100.00
18985;BME280;9626;52.552;13.436;2023-03-25T14:32:44;99566.38;;;10.51;100.00
18985;BME280;9626;52.552;13.436;2023-03-25T14:34:51;99569.19;;;10.21;100.00
18985;BME280;9626;52.552;13.436;2023-03-25T14:37:25;99566.81;;;10.13;100.00
18985;BME280;9626;52.552;13.436;2023-03-25T14:39:58;99562.81;;;10.52;100.00
18985;BME280;9626;52.552;13.436;2023-03-25T14:47:58;99545.91;;;11.02;100.00
18985;BME280;9626;52.552;13.436;2023-03-25T14:53:04;99545.31;;;11.80;100.00
18985;BME280;9626;52.552;13.436;2023-03-25T14:55:49;99533.53;;;12.67;97.27
18985;BME280;9626;52.552;13.436;2023-03-25T14:58:25;99537.63;;;12.74;91.96
18985;BME280;9626;52.552;13.436;2023-03-25T15:01:03;99541.69;;;12.04;98.53
18985;BME280;9626;52.552;13.436;2023-03-25T15:03:36;99542.66;;;12.42;92.81
18985;BME280;9626;52.552;13.436;2023-03-25T15:06:03;99537.63;;;12.74;88.80
18985;BME280;9626;52.552;13.436;2023-03-25T15:08:37;99538.38;;;12.78;85.70
18985;BME280;9626;52.552;13.436;2023-03-25T15:11:16;99533.25;;;12.14;92.52
18985;BME280;9626;52.552;13.436;2023-03-25T15:13:48;99538.94;;;12.84;86.40
18985;BME280;9626;52.552;13.436;2023-03-25T15:16:36;99534.38;;;12.48;89.23
18985;BME280;9626;52.552;13.436;2023-03-25T15:19:05;99529.66;;;12.74;88.51
18985;BME280;9626;52.552;13.436;2023-03-25T15:22:05;99530.16;;;12.82;85.62
18985;BME280;9626;52.552;13.436;2023-03-25T15:24:37;99520.97;;;12.51;90.30
18985;BME280;9626;52.552;13.436;2023-03-25T15:27:31;99533.75;;;12.81;88.36
18985;BME280;9626;52.552;13.436;2023-03-25T15:35:44;99525.16;;;12.76;88.08